createdAt,value
2017-03-30T00:00:05.744Z,19.52
2017-03-30T00:00:38.138Z,19.53
2017-03-30T00:01:10.395Z,19.53
2017-03-30T00:01:42.700Z,19.61
2017-03-30T00:02:15.025Z,19.53
2017-03-30T00:02:47.339Z,19.5
2017-03-30T00:03:19.657Z,19.5
2017-03-30T00:03:51.958Z,19.5
2017-03-30T00:04:24.277Z,19.46
2017-03-30T00:04:56.579Z,19.45
2017-03-30T00:05:28.908Z,19.5
2017-03-30T00:06:01.223Z,19.5
2017-03-30T00:06:33.628Z,19.4
2017-03-30T00:07:06.040Z,19.47
2017-03-30T00:07:38.356Z,19.52
2017-03-30T00:08:10.678Z,19.49
2017-03-30T00:08:42.995Z,19.46
2017-03-30T00:09:15.315Z,19.45
2017-03-30T00:09:47.618Z,19.49
2017-03-30T00:10:19.936Z,19.46
2017-03-30T00:10:52.253Z,19.47
2017-03-30T00:11:24.569Z,19.52
2017-03-30T00:11:56.913Z,19.53
2017-03-30T00:12:29.235Z,19.52
2017-03-30T00:13:01.539Z,19.61
2017-03-30T00:13:33.864Z,19.61
2017-03-30T00:14:06.175Z,19.46
2017-03-30T00:14:38.504Z,19.5
2017-03-30T00:15:10.822Z,19.46
2017-03-30T00:15:43.146Z,19.47
2017-03-30T00:16:15.450Z,19.61
2017-03-30T00:16:47.760Z,19.47
2017-03-30T00:17:20.084Z,19.49
2017-03-30T00:17:52.379Z,19.57
2017-03-30T00:18:24.707Z,19.5
2017-03-30T00:18:57.029Z,19.56
2017-03-30T00:19:29.342Z,19.5
2017-03-30T00:20:01.667Z,19.47
2017-03-30T00:20:33.980Z,19.52
2017-03-30T00:21:06.276Z,19.5
2017-03-30T00:21:38.585Z,19.52
2017-03-30T00:22:10.895Z,19.5
2017-03-30T00:22:43.223Z,19.45
2017-03-30T00:23:15.562Z,19.46
2017-03-30T00:23:47.866Z,19.46
2017-03-30T00:24:20.175Z,19.5
2017-03-30T00:24:52.482Z,19.46
2017-03-30T00:25:24.790Z,19.49
2017-03-30T00:25:57.106Z,19.43
2017-03-30T00:26:29.417Z,19.56
2017-03-30T00:27:01.741Z,19.45
2017-03-30T00:27:34.063Z,19.46
2017-03-30T00:28:06.383Z,19.52
2017-03-30T00:28:38.706Z,19.55
2017-03-30T00:29:11.023Z,19.47
2017-03-30T00:29:43.332Z,19.47
2017-03-30T00:30:15.651Z,19.45
2017-03-30T00:30:47.967Z,19.55
2017-03-30T00:31:20.283Z,19.49
2017-03-30T00:31:52.589Z,19.46
2017-03-30T00:32:24.911Z,19.5
2017-03-30T00:32:57.218Z,19.49
2017-03-30T00:33:29.541Z,19.47
2017-03-30T00:34:01.851Z,19.4
2017-03-30T00:34:34.160Z,19.49
2017-03-30T00:35:06.486Z,19.49
2017-03-30T00:35:38.804Z,19.47
2017-03-30T00:36:11.126Z,19.49
2017-03-30T00:36:43.447Z,19.46
2017-03-30T00:37:15.762Z,19.47
2017-03-30T00:37:48.090Z,19.53
2017-03-30T00:38:20.408Z,19.5
2017-03-30T00:38:52.709Z,19.46
2017-03-30T00:39:25.010Z,19.49
2017-03-30T00:39:57.321Z,19.47
2017-03-30T00:40:29.633Z,19.57
2017-03-30T00:41:01.970Z,19.53
2017-03-30T00:41:34.264Z,19.56
2017-03-30T00:42:06.574Z,19.47
2017-03-30T00:42:38.877Z,19.52
2017-03-30T00:43:11.182Z,19.47
2017-03-30T00:43:43.481Z,19.47
2017-03-30T00:44:15.816Z,19.47
2017-03-30T00:44:48.131Z,19.49
2017-03-30T00:45:20.438Z,19.45
2017-03-30T00:45:52.736Z,19.56
2017-03-30T00:46:25.050Z,19.52
2017-03-30T00:46:57.363Z,19.47
2017-03-30T00:47:29.670Z,19.49
2017-03-30T00:48:01.979Z,19.49
2017-03-30T00:48:34.293Z,19.35
2017-03-30T00:49:06.624Z,19.53
2017-03-30T00:49:38.914Z,19.49
2017-03-30T00:50:11.223Z,19.56
2017-03-30T00:50:43.525Z,19.52
2017-03-30T00:51:15.835Z,19.45
2017-03-30T00:51:48.160Z,19.53
2017-03-30T00:52:20.521Z,19.47
2017-03-30T00:52:52.823Z,19.5
2017-03-30T00:53:25.135Z,19.56
2017-03-30T00:53:57.442Z,19.5
2017-03-30T00:54:29.749Z,19.43
2017-03-30T00:55:02.063Z,19.46
2017-03-30T00:55:34.374Z,19.4
2017-03-30T00:56:06.678Z,19.45
2017-03-30T00:56:38.991Z,19.5
2017-03-30T00:57:11.316Z,19.49
2017-03-30T00:57:43.649Z,19.56
2017-03-30T00:58:15.980Z,19.49
2017-03-30T00:58:48.303Z,19.53
2017-03-30T00:59:20.598Z,19.53
2017-03-30T00:59:52.905Z,19.5
2017-03-30T01:00:25.207Z,19.43
2017-03-30T01:00:57.531Z,19.55
2017-03-30T01:01:29.881Z,19.38
2017-03-30T01:02:02.235Z,19.42
2017-03-30T01:02:34.551Z,19.47
2017-03-30T01:03:06.876Z,19.45
2017-03-30T01:03:39.188Z,19.52
2017-03-30T01:04:11.488Z,19.49
2017-03-30T01:04:43.790Z,19.55
2017-03-30T01:05:16.121Z,19.45
2017-03-30T01:05:48.432Z,19.38
2017-03-30T01:06:20.741Z,19.52
2017-03-30T01:06:53.047Z,19.43
2017-03-30T01:07:25.362Z,19.46
2017-03-30T01:07:57.675Z,19.45
2017-03-30T01:08:29.979Z,19.53
2017-03-30T01:09:02.327Z,19.35
2017-03-30T01:09:34.683Z,19.55
2017-03-30T01:10:06.989Z,19.37
2017-03-30T01:10:39.304Z,19.5
2017-03-30T01:11:11.624Z,19.43
2017-03-30T01:11:43.920Z,19.52
2017-03-30T01:12:16.234Z,19.53
2017-03-30T01:12:48.504Z,19.4
2017-03-30T01:13:20.745Z,19.37
2017-03-30T01:13:53.961Z,19.43
2017-03-30T01:14:26.205Z,19.45
2017-03-30T01:15:00.017Z,19.43
2017-03-30T01:15:32.287Z,19.53
2017-03-30T01:16:04.558Z,19.38
2017-03-30T01:16:36.797Z,19.43
2017-03-30T01:17:09.060Z,19.46
2017-03-30T01:17:41.363Z,19.38
2017-03-30T01:18:13.599Z,19.46
2017-03-30T01:18:45.904Z,19.46
2017-03-30T01:19:18.164Z,19.45
2017-03-30T01:19:50.423Z,19.47
2017-03-30T01:20:22.669Z,19.42
2017-03-30T01:20:55.819Z,19.45
2017-03-30T01:21:28.065Z,19.34
2017-03-30T01:22:00.327Z,19.53
2017-03-30T01:22:32.637Z,19.45
2017-03-30T01:23:04.965Z,19.43
2017-03-30T01:23:37.294Z,19.46
2017-03-30T01:24:09.608Z,19.52
2017-03-30T01:24:41.911Z,19.52
2017-03-30T01:25:14.213Z,19.45
2017-03-30T01:25:46.537Z,19.46
2017-03-30T01:26:18.856Z,19.45
2017-03-30T01:26:51.171Z,19.46
2017-03-30T01:27:23.486Z,19.42
2017-03-30T01:27:55.794Z,19.45
2017-03-30T01:28:28.105Z,19.42
2017-03-30T01:29:00.438Z,19.42
2017-03-30T01:29:32.749Z,19.45
2017-03-30T01:30:05.057Z,19.37
2017-03-30T01:30:37.376Z,19.43
2017-03-30T01:31:09.686Z,19.49
2017-03-30T01:31:42.002Z,19.43
2017-03-30T01:32:14.309Z,19.38
2017-03-30T01:32:47.427Z,19.43
2017-03-30T01:33:20.474Z,19.43
2017-03-30T01:33:52.720Z,19.46
2017-03-30T01:34:24.986Z,19.47
2017-03-30T01:34:57.306Z,19.45
2017-03-30T01:35:29.557Z,19.47
2017-03-30T01:36:01.806Z,19.49
2017-03-30T01:36:34.059Z,19.45
2017-03-30T01:37:07.283Z,19.49
2017-03-30T01:37:39.542Z,19.37
2017-03-30T01:38:12.298Z,19.42
2017-03-30T01:38:44.543Z,19.5
2017-03-30T01:39:16.779Z,19.4
2017-03-30T01:39:49.012Z,19.42
2017-03-30T01:40:21.265Z,19.46
2017-03-30T01:40:53.522Z,19.45
2017-03-30T01:41:25.770Z,19.45
2017-03-30T01:41:58.043Z,19.47
2017-03-30T01:42:30.369Z,19.47
2017-03-30T01:43:02.667Z,19.37
2017-03-30T01:43:34.995Z,19.43
2017-03-30T01:44:07.318Z,19.46
2017-03-30T01:44:39.635Z,19.45
2017-03-30T01:45:11.952Z,19.42
2017-03-30T01:45:44.278Z,19.47
2017-03-30T01:46:16.585Z,19.47
2017-03-30T01:46:48.908Z,19.43
2017-03-30T01:47:21.227Z,19.43
2017-03-30T01:47:53.533Z,19.45
2017-03-30T01:48:25.863Z,19.45
2017-03-30T01:48:58.170Z,19.42
2017-03-30T01:49:30.509Z,19.49
2017-03-30T01:50:02.820Z,19.47
2017-03-30T01:50:35.146Z,19.43
2017-03-30T01:51:07.458Z,19.35
2017-03-30T01:51:39.786Z,19.45
2017-03-30T01:52:12.103Z,19.45
2017-03-30T01:52:44.410Z,19.45
2017-03-30T01:53:16.715Z,19.38
2017-03-30T01:53:49.057Z,19.34
2017-03-30T01:54:21.387Z,19.45
2017-03-30T01:54:53.705Z,19.45
2017-03-30T01:55:26.020Z,19.43
2017-03-30T01:55:58.327Z,19.43
2017-03-30T01:56:30.634Z,19.43
2017-03-30T01:57:02.953Z,19.45
2017-03-30T01:57:35.275Z,19.47
2017-03-30T01:58:07.587Z,19.45
2017-03-30T01:58:39.895Z,19.4
2017-03-30T01:59:12.191Z,19.42
2017-03-30T01:59:44.491Z,19.42
2017-03-30T02:00:16.801Z,19.37
2017-03-30T02:00:49.102Z,19.49
2017-03-30T02:01:21.426Z,19.45
2017-03-30T02:01:53.748Z,19.47
2017-03-30T02:02:26.970Z,19.42
2017-03-30T02:02:59.212Z,19.45
2017-03-30T02:03:31.464Z,19.46
2017-03-30T02:04:03.710Z,19.38
2017-03-30T02:04:35.959Z,19.5
2017-03-30T02:05:08.207Z,19.46
2017-03-30T02:05:40.597Z,19.49
2017-03-30T02:06:12.871Z,19.4
2017-03-30T02:06:45.117Z,19.45
2017-03-30T02:07:17.357Z,19.43
2017-03-30T02:07:49.586Z,19.46
2017-03-30T02:08:21.832Z,19.37
2017-03-30T02:08:54.063Z,19.45
2017-03-30T02:09:26.407Z,19.43
2017-03-30T02:09:58.655Z,19.4
2017-03-30T02:10:30.895Z,19.46
2017-03-30T02:11:03.142Z,19.47
2017-03-30T02:11:35.386Z,19.43
2017-03-30T02:12:08.496Z,19.45
2017-03-30T02:12:40.811Z,19.42
2017-03-30T02:13:13.114Z,19.45
2017-03-30T02:13:45.421Z,19.45
2017-03-30T02:14:17.731Z,19.43
2017-03-30T02:14:50.028Z,19.46
2017-03-30T02:15:22.326Z,19.45
2017-03-30T02:15:54.629Z,19.45
2017-03-30T02:16:26.954Z,19.49
2017-03-30T02:16:59.284Z,19.52
2017-03-30T02:17:31.603Z,19.4
2017-03-30T02:18:03.913Z,19.45
2017-03-30T02:18:36.216Z,19.45
2017-03-30T02:19:08.524Z,19.47
2017-03-30T02:19:40.833Z,19.47
2017-03-30T02:20:13.133Z,19.45
2017-03-30T02:20:45.464Z,19.42
2017-03-30T02:21:17.790Z,19.4
2017-03-30T02:21:50.095Z,19.42
2017-03-30T02:22:22.339Z,19.42
2017-03-30T02:22:54.588Z,19.43
2017-03-30T02:23:26.838Z,19.46
2017-03-30T02:23:59.106Z,19.46
2017-03-30T02:24:31.335Z,19.46
2017-03-30T02:25:03.592Z,19.46
2017-03-30T02:25:35.848Z,19.45
2017-03-30T02:26:08.103Z,19.5
2017-03-30T02:26:40.362Z,19.46
2017-03-30T02:27:12.614Z,19.45
2017-03-30T02:27:44.863Z,19.46
2017-03-30T02:28:17.103Z,19.43
2017-03-30T02:28:49.347Z,19.43
2017-03-30T02:29:22.503Z,19.4
2017-03-30T02:29:55.399Z,19.45
2017-03-30T02:30:27.657Z,19.4
2017-03-30T02:30:59.897Z,19.43
2017-03-30T02:31:32.156Z,19.45
2017-03-30T02:32:05.370Z,19.43
2017-03-30T02:32:37.623Z,19.43
2017-03-30T02:33:09.867Z,19.45
2017-03-30T02:33:42.123Z,19.38
2017-03-30T02:34:15.082Z,19.34
2017-03-30T02:34:47.345Z,19.42
2017-03-30T02:35:19.612Z,19.49
2017-03-30T02:35:51.866Z,19.46
2017-03-30T02:36:24.129Z,19.47
2017-03-30T02:36:56.399Z,19.47
2017-03-30T02:37:28.677Z,19.4
2017-03-30T02:38:00.951Z,19.43
2017-03-30T02:38:33.191Z,19.42
2017-03-30T02:39:05.438Z,19.4
2017-03-30T02:39:38.450Z,19.4
2017-03-30T02:40:10.705Z,19.49
2017-03-30T02:40:42.944Z,19.46
2017-03-30T02:41:15.186Z,19.38
2017-03-30T02:41:47.441Z,19.46
2017-03-30T02:42:19.740Z,19.42
2017-03-30T02:42:52.072Z,19.42
2017-03-30T02:43:24.369Z,19.45
2017-03-30T02:43:56.679Z,19.47
2017-03-30T02:44:29.014Z,19.45
2017-03-30T02:45:01.316Z,19.45
2017-03-30T02:45:33.632Z,19.38
2017-03-30T02:46:05.948Z,19.46
2017-03-30T02:46:38.276Z,19.43
2017-03-30T02:47:10.596Z,19.35
2017-03-30T02:47:42.930Z,19.42
2017-03-30T02:48:15.237Z,19.43
2017-03-30T02:48:47.548Z,19.43
2017-03-30T02:49:19.866Z,19.43
2017-03-30T02:49:52.172Z,19.43
2017-03-30T02:50:24.479Z,19.47
2017-03-30T02:50:56.794Z,19.43
2017-03-30T02:51:29.115Z,19.45
2017-03-30T02:52:01.416Z,19.45
2017-03-30T02:52:33.728Z,19.45
2017-03-30T02:53:06.040Z,19.43
2017-03-30T02:53:38.357Z,19.38
2017-03-30T02:54:10.666Z,19.45
2017-03-30T02:54:43.002Z,19.45
2017-03-30T02:55:15.312Z,19.4
2017-03-30T02:55:47.654Z,19.45
2017-03-30T02:56:19.970Z,19.43
2017-03-30T02:56:52.281Z,19.43
2017-03-30T02:57:24.610Z,19.49
2017-03-30T02:57:56.936Z,19.47
2017-03-30T02:58:29.270Z,19.46
2017-03-30T02:59:01.574Z,19.42
2017-03-30T02:59:33.907Z,19.45
2017-03-30T03:00:06.212Z,19.43
2017-03-30T03:00:38.526Z,19.42
2017-03-30T03:01:10.844Z,19.45
2017-03-30T03:01:43.162Z,19.37
2017-03-30T03:02:15.465Z,19.46
2017-03-30T03:02:47.781Z,19.43
2017-03-30T03:03:20.109Z,19.46
2017-03-30T03:03:52.412Z,19.45
2017-03-30T03:04:24.731Z,19.42
2017-03-30T03:04:57.045Z,19.47
2017-03-30T03:05:29.356Z,19.47
2017-03-30T03:06:01.664Z,19.46
2017-03-30T03:06:33.974Z,19.47
2017-03-30T03:07:06.272Z,19.49
2017-03-30T03:07:38.580Z,19.42
2017-03-30T03:08:10.892Z,19.43
2017-03-30T03:08:43.197Z,19.42
2017-03-30T03:09:15.515Z,19.45
2017-03-30T03:09:47.830Z,19.46
2017-03-30T03:10:20.171Z,19.37
2017-03-30T03:10:52.487Z,19.38
2017-03-30T03:11:24.797Z,19.43
2017-03-30T03:11:57.112Z,19.4
2017-03-30T03:12:29.873Z,19.42
2017-03-30T03:13:02.120Z,19.46
2017-03-30T03:13:34.389Z,19.38
2017-03-30T03:14:06.636Z,19.42
2017-03-30T03:14:38.872Z,19.47
2017-03-30T03:15:11.114Z,19.43
2017-03-30T03:15:43.378Z,19.42
2017-03-30T03:16:15.615Z,19.37
2017-03-30T03:16:47.858Z,19.4
2017-03-30T03:17:20.112Z,19.45
2017-03-30T03:17:52.355Z,19.53
2017-03-30T03:18:24.591Z,19.46
2017-03-30T03:18:56.845Z,19.46
2017-03-30T03:19:29.080Z,19.45
2017-03-30T03:20:02.070Z,19.45
2017-03-30T03:20:34.321Z,19.45
2017-03-30T03:21:06.561Z,19.43
2017-03-30T03:21:38.809Z,19.42
2017-03-30T03:22:11.064Z,19.35
2017-03-30T03:22:43.376Z,19.49
2017-03-30T03:23:15.696Z,19.45
2017-03-30T03:23:48.005Z,19.46
2017-03-30T03:24:20.320Z,19.38
2017-03-30T03:24:52.633Z,19.32
2017-03-30T03:25:24.937Z,19.45
2017-03-30T03:25:57.239Z,19.42
2017-03-30T03:26:29.545Z,19.47
2017-03-30T03:27:01.855Z,19.46
2017-03-30T03:27:34.165Z,19.43
2017-03-30T03:28:06.494Z,19.45
2017-03-30T03:28:38.793Z,19.45
2017-03-30T03:29:11.118Z,19.37
2017-03-30T03:29:43.435Z,19.45
2017-03-30T03:30:15.747Z,19.46
2017-03-30T03:30:48.099Z,19.42
2017-03-30T03:31:20.417Z,19.43
2017-03-30T03:31:52.726Z,19.45
2017-03-30T03:32:24.961Z,19.45
2017-03-30T03:32:57.225Z,19.43
2017-03-30T03:33:29.483Z,19.43
2017-03-30T03:34:01.861Z,19.42
2017-03-30T03:34:34.098Z,19.46
2017-03-30T03:35:06.347Z,19.45
2017-03-30T03:35:38.658Z,19.5
2017-03-30T03:36:10.962Z,19.43
2017-03-30T03:36:43.225Z,19.45
2017-03-30T03:37:16.034Z,19.45
2017-03-30T03:37:48.295Z,19.4
2017-03-30T03:38:20.546Z,19.46
2017-03-30T03:38:53.477Z,19.45
2017-03-30T03:39:25.714Z,19.46
2017-03-30T03:39:57.967Z,19.49
2017-03-30T03:40:30.206Z,19.5
2017-03-30T03:41:02.449Z,19.43
2017-03-30T03:41:34.725Z,19.45
2017-03-30T03:42:06.957Z,19.4
2017-03-30T03:42:39.258Z,19.43
2017-03-30T03:43:11.575Z,19.45
2017-03-30T03:43:43.906Z,19.42
2017-03-30T03:44:16.214Z,19.42
2017-03-30T03:44:48.523Z,19.45
2017-03-30T03:45:20.841Z,19.46
2017-03-30T03:45:53.147Z,19.46
2017-03-30T03:46:25.441Z,19.45
2017-03-30T03:46:57.760Z,19.45
2017-03-30T03:47:30.058Z,19.46
2017-03-30T03:48:02.380Z,19.53
2017-03-30T03:48:34.688Z,19.42
2017-03-30T03:49:07.003Z,19.43
2017-03-30T03:49:39.311Z,19.43
2017-03-30T03:50:11.615Z,19.43
2017-03-30T03:50:43.911Z,19.42
2017-03-30T03:51:16.218Z,19.46
2017-03-30T03:51:48.525Z,19.42
2017-03-30T03:52:20.831Z,19.45
2017-03-30T03:52:53.161Z,19.45
2017-03-30T03:53:25.471Z,19.47
2017-03-30T03:53:57.771Z,19.46
2017-03-30T03:54:30.097Z,19.45
2017-03-30T03:55:02.408Z,19.42
2017-03-30T03:55:34.741Z,19.45
2017-03-30T03:56:07.048Z,19.5
2017-03-30T03:56:39.375Z,19.43
2017-03-30T03:57:11.685Z,19.46
2017-03-30T03:57:44.007Z,19.42
2017-03-30T03:58:16.315Z,19.49
2017-03-30T03:58:48.634Z,19.47
2017-03-30T03:59:20.956Z,19.45
2017-03-30T03:59:53.285Z,19.42
2017-03-30T04:00:25.597Z,19.4
2017-03-30T04:00:57.908Z,19.45
2017-03-30T04:01:30.223Z,19.42
2017-03-30T04:02:02.527Z,19.4
2017-03-30T04:02:34.892Z,19.45
2017-03-30T04:03:08.048Z,19.38
2017-03-30T04:03:40.297Z,19.46
2017-03-30T04:04:12.539Z,19.43
2017-03-30T04:04:44.785Z,19.38
2017-03-30T04:05:17.861Z,19.49
2017-03-30T04:05:50.154Z,19.43
2017-03-30T04:06:22.402Z,19.43
2017-03-30T04:06:54.657Z,19.45
2017-03-30T04:07:27.403Z,19.37
2017-03-30T04:07:59.754Z,19.46
2017-03-30T04:08:31.999Z,19.43
2017-03-30T04:09:04.247Z,19.45
2017-03-30T04:09:36.501Z,19.47
2017-03-30T04:10:09.385Z,19.43
2017-03-30T04:10:41.649Z,19.42
2017-03-30T04:11:13.894Z,19.43
2017-03-30T04:11:46.114Z,19.46
2017-03-30T04:12:18.354Z,19.45
2017-03-30T04:12:50.659Z,19.47
2017-03-30T04:13:22.980Z,19.45
2017-03-30T04:13:55.317Z,19.43
2017-03-30T04:14:27.628Z,19.46
2017-03-30T04:14:59.935Z,19.46
2017-03-30T04:15:32.255Z,19.45
2017-03-30T04:16:04.570Z,19.42
2017-03-30T04:16:36.893Z,19.47
2017-03-30T04:17:09.212Z,19.42
2017-03-30T04:17:41.546Z,19.45
2017-03-30T04:18:13.861Z,19.42
2017-03-30T04:18:46.179Z,19.43
2017-03-30T04:19:18.485Z,19.43
2017-03-30T04:19:50.804Z,19.42
2017-03-30T04:20:23.125Z,19.38
2017-03-30T04:20:55.442Z,19.45
2017-03-30T04:21:27.770Z,19.4
2017-03-30T04:22:00.091Z,19.42
2017-03-30T04:22:32.938Z,19.45
2017-03-30T04:23:05.995Z,19.4
2017-03-30T04:23:38.282Z,19.43
2017-03-30T04:24:10.586Z,19.46
2017-03-30T04:24:42.839Z,19.4
2017-03-30T04:25:15.089Z,19.46
2017-03-30T04:25:47.334Z,19.46
2017-03-30T04:26:19.585Z,19.42
2017-03-30T04:26:51.824Z,19.38
2017-03-30T04:27:24.083Z,19.45
2017-03-30T04:27:56.394Z,19.43
2017-03-30T04:28:28.666Z,19.45
2017-03-30T04:29:00.914Z,19.45
2017-03-30T04:29:33.167Z,19.43
2017-03-30T04:30:05.421Z,19.37
2017-03-30T04:30:37.674Z,19.42
2017-03-30T04:31:09.910Z,19.49
2017-03-30T04:31:43.055Z,19.46
2017-03-30T04:32:15.323Z,19.49
2017-03-30T04:32:47.567Z,19.47
2017-03-30T04:33:19.847Z,19.43
2017-03-30T04:33:52.093Z,19.38
2017-03-30T04:34:24.324Z,19.46
2017-03-30T04:34:56.584Z,19.4
2017-03-30T04:35:29.474Z,19.47
2017-03-30T04:36:01.730Z,19.45
2017-03-30T04:36:33.977Z,19.42
2017-03-30T04:37:06.225Z,19.45
2017-03-30T04:37:38.496Z,19.46
2017-03-30T04:38:11.458Z,19.45
2017-03-30T04:38:43.713Z,19.42
2017-03-30T04:39:15.968Z,19.45
2017-03-30T04:39:48.220Z,19.43
2017-03-30T04:40:21.452Z,19.49
2017-03-30T04:40:54.587Z,19.47
2017-03-30T04:41:26.889Z,19.46
2017-03-30T04:41:59.133Z,19.35
2017-03-30T04:42:31.439Z,19.43
2017-03-30T04:43:03.751Z,19.37
2017-03-30T04:43:36.062Z,19.46
2017-03-30T04:44:08.396Z,19.45
2017-03-30T04:44:40.709Z,19.43
2017-03-30T04:45:13.028Z,19.46
2017-03-30T04:45:45.334Z,19.47
2017-03-30T04:46:17.656Z,19.43
2017-03-30T04:46:49.977Z,19.35
2017-03-30T04:47:22.286Z,19.49
2017-03-30T04:47:54.594Z,19.49
2017-03-30T04:48:26.909Z,19.35
2017-03-30T04:48:59.230Z,19.45
2017-03-30T04:49:31.540Z,19.43
2017-03-30T04:50:03.861Z,19.4
2017-03-30T04:50:36.158Z,19.43
2017-03-30T04:51:08.492Z,19.4
2017-03-30T04:51:40.802Z,19.47
2017-03-30T04:52:13.120Z,19.46
2017-03-30T04:52:45.420Z,19.47
2017-03-30T04:53:17.727Z,19.45
2017-03-30T04:53:50.046Z,19.45
2017-03-30T04:54:22.357Z,19.45
2017-03-30T04:54:54.675Z,19.45
2017-03-30T04:55:27.000Z,19.43
2017-03-30T04:55:59.322Z,19.49
2017-03-30T04:56:31.630Z,19.45
2017-03-30T04:57:03.931Z,19.43
2017-03-30T04:57:36.254Z,19.45
2017-03-30T04:58:08.585Z,19.46
2017-03-30T04:58:40.882Z,19.43
2017-03-30T04:59:13.190Z,19.46
2017-03-30T04:59:45.514Z,19.4
2017-03-30T05:00:17.836Z,19.43
2017-03-30T05:00:50.146Z,19.46
2017-03-30T05:01:22.483Z,19.45
2017-03-30T05:01:54.783Z,19.47
2017-03-30T05:02:28.561Z,19.43
2017-03-30T05:03:00.801Z,19.46
2017-03-30T05:03:33.622Z,19.47
2017-03-30T05:04:05.998Z,19.35
2017-03-30T05:04:38.249Z,19.45
2017-03-30T05:05:10.482Z,19.46
2017-03-30T05:05:43.617Z,19.4
2017-03-30T05:06:15.856Z,19.42
2017-03-30T05:06:48.105Z,19.4
2017-03-30T05:07:20.379Z,19.45
2017-03-30T05:07:53.569Z,19.38
2017-03-30T05:08:25.838Z,19.45
2017-03-30T05:08:58.097Z,19.45
2017-03-30T05:09:30.344Z,19.45
2017-03-30T05:10:02.597Z,19.4
2017-03-30T05:10:34.896Z,19.47
2017-03-30T05:11:07.163Z,19.37
2017-03-30T05:11:39.425Z,19.43
2017-03-30T05:12:11.649Z,19.47
2017-03-30T05:12:43.957Z,19.4
2017-03-30T05:13:16.271Z,19.49
2017-03-30T05:13:48.584Z,19.43
2017-03-30T05:14:20.906Z,19.45
2017-03-30T05:14:53.225Z,19.42
2017-03-30T05:15:25.553Z,19.42
2017-03-30T05:15:57.875Z,19.45
2017-03-30T05:16:30.172Z,19.42
2017-03-30T05:17:02.480Z,19.32
2017-03-30T05:17:34.813Z,19.45
2017-03-30T05:18:07.118Z,19.4
2017-03-30T05:18:39.456Z,19.46
2017-03-30T05:19:11.782Z,19.47
2017-03-30T05:19:44.092Z,19.47
2017-03-30T05:20:16.417Z,19.45
2017-03-30T05:20:48.735Z,19.46
2017-03-30T05:21:21.054Z,19.5
2017-03-30T05:21:53.353Z,19.46
2017-03-30T05:22:25.674Z,19.42
2017-03-30T05:22:57.989Z,19.45
2017-03-30T05:23:30.290Z,19.47
2017-03-30T05:24:02.586Z,19.46
2017-03-30T05:24:34.892Z,19.46
2017-03-30T05:25:07.197Z,19.47
2017-03-30T05:25:39.503Z,19.45
2017-03-30T05:26:11.824Z,19.45
2017-03-30T05:26:44.130Z,19.45
2017-03-30T05:27:16.424Z,19.46
2017-03-30T05:27:48.739Z,19.46
2017-03-30T05:28:21.062Z,19.4
2017-03-30T05:28:53.426Z,19.45
2017-03-30T05:29:25.739Z,19.43
2017-03-30T05:29:58.073Z,19.47
2017-03-30T05:30:30.388Z,19.47
2017-03-30T05:31:02.705Z,19.43
2017-03-30T05:31:35.017Z,19.49
2017-03-30T05:32:07.315Z,19.49
2017-03-30T05:32:39.557Z,19.43
2017-03-30T05:33:12.412Z,19.43
2017-03-30T05:33:44.640Z,19.47
2017-03-30T05:34:16.881Z,19.42
2017-03-30T05:34:49.110Z,19.46
2017-03-30T05:35:21.356Z,19.45
2017-03-30T05:35:53.602Z,19.49
2017-03-30T05:36:25.845Z,19.47
2017-03-30T05:36:58.086Z,19.4
2017-03-30T05:37:30.359Z,19.47
2017-03-30T05:38:02.682Z,19.45
2017-03-30T05:38:35.629Z,19.45
2017-03-30T05:39:07.892Z,19.45
2017-03-30T05:39:42.693Z,19.37
2017-03-30T05:40:15.910Z,19.49
2017-03-30T05:40:48.155Z,19.45
2017-03-30T05:41:20.383Z,19.45
2017-03-30T05:41:53.579Z,19.43
2017-03-30T05:42:25.835Z,19.43
2017-03-30T05:42:58.082Z,19.45
2017-03-30T05:43:30.345Z,19.45
2017-03-30T05:44:02.595Z,19.45
2017-03-30T05:44:35.476Z,19.46
2017-03-30T05:45:07.728Z,19.42
2017-03-30T05:45:39.977Z,19.43
2017-03-30T05:46:12.209Z,19.46
2017-03-30T05:46:44.452Z,19.43
2017-03-30T05:47:17.474Z,19.47
2017-03-30T05:47:49.733Z,19.43
2017-03-30T05:48:22.930Z,19.45
2017-03-30T05:48:55.266Z,19.52
2017-03-30T05:49:28.435Z,19.45
2017-03-30T05:50:00.689Z,19.46
2017-03-30T05:50:32.954Z,19.53
2017-03-30T05:51:05.219Z,19.56
2017-03-30T05:51:37.471Z,19.55
2017-03-30T05:52:09.748Z,19.55
2017-03-30T05:52:41.997Z,19.49
2017-03-30T05:53:15.034Z,19.53
2017-03-30T05:53:48.580Z,19.55
2017-03-30T05:54:21.633Z,19.5
2017-03-30T05:54:53.888Z,19.55
2017-03-30T05:55:26.151Z,19.57
2017-03-30T05:55:58.389Z,19.5
2017-03-30T05:56:30.624Z,19.49
2017-03-30T05:57:02.887Z,19.55
2017-03-30T05:57:35.196Z,19.52
2017-03-30T05:58:07.452Z,19.45
2017-03-30T05:58:39.715Z,19.53
2017-03-30T05:59:11.957Z,19.52
2017-03-30T05:59:44.213Z,19.47
2017-03-30T06:00:16.469Z,19.46
2017-03-30T06:00:48.716Z,19.52
2017-03-30T06:01:22.086Z,19.46
2017-03-30T06:01:54.346Z,19.47
2017-03-30T06:02:26.664Z,19.42
2017-03-30T06:02:59.012Z,19.47
2017-03-30T06:03:31.337Z,19.52
2017-03-30T06:04:03.652Z,19.47
2017-03-30T06:04:35.982Z,19.49
2017-03-30T06:05:08.296Z,19.57
2017-03-30T06:05:40.607Z,19.46
2017-03-30T06:06:12.906Z,19.5
2017-03-30T06:06:45.211Z,19.45
2017-03-30T06:07:17.503Z,19.47
2017-03-30T06:07:49.846Z,19.5
2017-03-30T06:08:22.168Z,19.46
2017-03-30T06:08:54.465Z,19.52
2017-03-30T06:09:26.768Z,19.55
2017-03-30T06:09:59.111Z,19.5
2017-03-30T06:10:31.420Z,19.5
2017-03-30T06:11:03.746Z,19.5
2017-03-30T06:11:36.056Z,19.52
2017-03-30T06:12:08.583Z,19.5
2017-03-30T06:12:41.987Z,19.46
2017-03-30T06:13:14.307Z,19.49
2017-03-30T06:13:46.625Z,19.47
2017-03-30T06:14:18.957Z,19.52
2017-03-30T06:14:51.254Z,19.4
2017-03-30T06:15:23.610Z,19.52
2017-03-30T06:15:55.995Z,19.52
2017-03-30T06:16:28.622Z,19.43
2017-03-30T06:17:00.951Z,19.52
2017-03-30T06:17:33.276Z,19.47
2017-03-30T06:18:05.590Z,19.52
2017-03-30T06:18:37.903Z,19.5
2017-03-30T06:19:10.197Z,19.55
2017-03-30T06:19:42.503Z,19.5
2017-03-30T06:20:14.813Z,19.53
2017-03-30T06:20:47.114Z,19.49
2017-03-30T06:21:19.417Z,19.53
2017-03-30T06:21:51.731Z,19.5
2017-03-30T06:22:24.051Z,19.55
2017-03-30T06:22:56.372Z,19.52
2017-03-30T06:23:28.684Z,19.61
2017-03-30T06:24:00.992Z,19.52
2017-03-30T06:24:33.309Z,19.5
2017-03-30T06:25:05.625Z,19.53
2017-03-30T06:25:37.925Z,19.53
2017-03-30T06:26:10.231Z,19.46
2017-03-30T06:26:42.545Z,19.57
2017-03-30T06:27:14.855Z,19.52
2017-03-30T06:27:47.159Z,19.49
2017-03-30T06:28:19.472Z,19.53
2017-03-30T06:28:51.799Z,19.6
2017-03-30T06:29:24.118Z,19.52
2017-03-30T06:29:56.446Z,19.61
2017-03-30T06:30:28.748Z,19.5
2017-03-30T06:31:01.060Z,19.61
2017-03-30T06:31:33.365Z,19.55
2017-03-30T06:32:05.692Z,19.52
2017-03-30T06:32:38.013Z,19.61
2017-03-30T06:33:10.368Z,19.63
2017-03-30T06:33:42.696Z,19.64
2017-03-30T06:34:15.021Z,19.61
2017-03-30T06:34:47.332Z,19.53
2017-03-30T06:35:19.638Z,19.61
2017-03-30T06:35:51.963Z,19.63
2017-03-30T06:36:24.263Z,19.64
2017-03-30T06:36:56.570Z,19.64
2017-03-30T06:37:28.946Z,19.65
2017-03-30T06:38:01.292Z,19.65
2017-03-30T06:38:33.605Z,19.61
2017-03-30T06:39:05.921Z,19.63
2017-03-30T06:39:38.221Z,19.7
2017-03-30T06:40:10.547Z,19.71
2017-03-30T06:40:42.850Z,19.65
2017-03-30T06:41:15.158Z,19.65
2017-03-30T06:41:47.471Z,19.68
2017-03-30T06:42:19.794Z,19.65
2017-03-30T06:42:52.121Z,19.7
2017-03-30T06:43:24.433Z,19.63
2017-03-30T06:43:56.760Z,19.67
2017-03-30T06:44:29.107Z,19.7
2017-03-30T06:45:01.435Z,19.64
2017-03-30T06:45:33.737Z,19.67
2017-03-30T06:46:06.035Z,19.65
2017-03-30T06:46:38.339Z,19.65
2017-03-30T06:47:10.654Z,19.74
2017-03-30T06:47:42.970Z,19.65
2017-03-30T06:48:15.299Z,19.64
2017-03-30T06:48:47.611Z,19.68
2017-03-30T06:49:19.935Z,19.67
2017-03-30T06:49:52.255Z,19.64
2017-03-30T06:50:24.560Z,19.78
2017-03-30T06:50:56.886Z,19.7
2017-03-30T06:51:29.220Z,19.75
2017-03-30T06:52:01.535Z,19.75
2017-03-30T06:52:33.810Z,19.65
2017-03-30T06:53:06.054Z,19.71
2017-03-30T06:53:38.301Z,19.71
2017-03-30T06:54:10.554Z,19.68
2017-03-30T06:54:43.662Z,19.78
2017-03-30T06:55:15.907Z,19.74
2017-03-30T06:55:48.310Z,19.79
2017-03-30T06:56:20.559Z,19.68
2017-03-30T06:56:52.816Z,19.72
2017-03-30T06:57:25.068Z,19.68
2017-03-30T06:57:57.361Z,19.75